Agency Village, SD

1:17 AM CDT on July 29, 2014 (GMT -0500)
Wheaton Municipal (KETH) Elev 1024 ft | 45.78 °N, 96.54 °W | Change Station

Current weather conditions updated 21 minutes ago

Clear
Clear
55 °F
Feels Like 55 °F
N
4
Wind Variable Wind from West

Today is forecast to be Much Warmer than yesterday.

Today
High -- | Low -- °F
--% Chance of Precip.
Yesterday
High -- | Low -- °F
Precip. -- in
6:08 AM 9:00 PM
Waxing Crescent, 5% visible
Pressure 30.22 in
Visibility 10.0 miles
Clouds Clear
Dew Point 54 °F
Humidity 94%
Rainfall 0.00 in
Snow Depth Not available.
UV 0 out of 12
Pollen 7.30 out of 12
Air Quality Not available.
Flu Activity Not available.
METAR KETH 290556Z AUTO 26003KT 10SM CLR 13/12 A3022 RMK AO2

More Conditions Fewer Conditions

Pressure 30.22 in
Visibility 10.0 miles
Clouds Clear
Dew Point 54 °F
Humidity 94%
Rainfall 0.00 in
Snow Depth Not available.
UV 0 out of 12
Pollen 7.30 out of 12
Air Quality Not available.
Flu Activity Not available.
METAR KETH 290556Z AUTO 26003KT 10SM CLR 13/12 A3022 RMK AO2

More Conditions Fewer Conditions

10-Day Weather Forecast

Almanac

Astronomy

Jul. 29, 2014 Rise Set
Actual Time 6:08 AM CDT 9:00 PM CDT
Civil Twilight 5:33 AM CDT 9:34 PM CDT
Nautical Twilight 4:49 AM CDT 10:18 PM CDT
Astronomical Twilight 3:56 AM CDT 11:10 PM CDT
Moon 8:56 AM CDT 10:01 PM CDT
Length of Visible Light 16h 01m
Length of Day
14h 52m
Tomorrow will be 2m 22s shorter.
Waxing Crescent, 5% of the Moon is Illuminated
Today
Waxing Crescent
Aug 3
First Quarter
Aug 10
Full
Aug 17
Last Quarter
Aug 25
New

Today's Extremes

State Highs State Lows

Community

WunderPhotos

Upload Photos

1,738,642 photos uploaded!

Nearby

Snow Depth

Station Depth Elevation
Blind Park 0 in 6890 ft

Earthquake Activity

City Distance Mag. Time & Date
No recent earthquake activity has been reported nearby.
Minimum magnitude displayed is 2.5.

Coastal Water Temperatures

Place Temperature
No Stations Reporting

Nearby Weather Stations

Station Location Temp. Dew Point Humidity Wind Precip. Elev Updated Type
RAWS MARSHALL CO SD, Lake City, SD 61 °F 58 °F 89% North  at  0 mph 0.00 in / hr 2009 ft 11:59 PM CDT MADIS

Show More Stations Show Fewer Stations